sensor_id;sensor_type;location;lat;lon;timestamp;pressure;altitude;pressure_sealevel;temperature;humidity
14902;BME280;7542;49.078;9.194;2023-07-16T00:00:00;98456.63;;;33.28;38.96
14902;BME280;7542;49.078;9.194;2023-07-16T00:01:02;98443.03;;;33.28;38.79
14902;BME280;7542;49.078;9.194;2023-07-16T00:02:05;98434.09;;;33.28;38.57
14902;BME280;7542;49.078;9.194;2023-07-16T00:03:07;98424.81;;;33.29;38.70
14902;BME280;7542;49.078;9.194;2023-07-16T00:04:09;98420.97;;;33.30;38.95
14902;BME280;7542;49.078;9.194;2023-07-16T00:05:11;98409.63;;;33.28;39.12
14902;BME280;7542;49.078;9.194;2023-07-16T00:06:13;98413.94;;;33.29;38.78
14902;BME280;7542;49.078;9.194;2023-07-16T00:07:16;98417.47;;;33.29;38.99
14902;BME280;7542;49.078;9.194;2023-07-16T00:08:19;98412.81;;;33.30;38.34
14902;BME280;7542;49.078;9.194;2023-07-16T00:09:21;98422.91;;;33.29;38.37
14902;BME280;7542;49.078;9.194;2023-07-16T00:10:23;98431.84;;;33.30;38.75
14902;BME280;7542;49.078;9.194;2023-07-16T00:11:25;98427.53;;;33.29;38.77
14902;BME280;7542;49.078;9.194;2023-07-16T00:12:27;98430.25;;;33.29;38.56
14902;BME280;7542;49.078;9.194;2023-07-16T00:13:29;98424.03;;;33.28;38.50
14902;BME280;7542;49.078;9.194;2023-07-16T00:14:31;98432.97;;;33.29;38.36
14902;BME280;7542;49.078;9.194;2023-07-16T00:15:33;98428.66;;;33.28;38.57
14902;BME280;7542;49.078;9.194;2023-07-16T00:16:35;98437.59;;;33.28;38.64
14902;BME280;7542;49.078;9.194;2023-07-16T00:17:38;98447.69;;;33.28;38.70
14902;BME280;7542;49.078;9.194;2023-07-16T00:18:44;98454.72;;;33.29;38.47
14902;BME280;7542;49.078;9.194;2023-07-16T00:19:46;98457.44;;;33.29;38.56
14902;BME280;7542;49.078;9.194;2023-07-16T00:20:48;98460.16;;;33.29;38.38
14902;BME280;7542;49.078;9.194;2023-07-16T00:21:51;98462.06;;;33.28;38.51
14902;BME280;7542;49.078;9.194;2023-07-16T00:22:54;98467.50;;;33.28;38.21
14902;BME280;7542;49.078;9.194;2023-07-16T00:23:56;98464.78;;;33.28;38.44
14902;BME280;7542;49.078;9.194;2023-07-16T00:24:58;98456.97;;;33.27;38.45
14902;BME280;7542;49.078;9.194;2023-07-16T00:26:00;98446.09;;;33.27;37.79
14902;BME280;7542;49.078;9.194;2023-07-16T00:27:02;98451.53;;;33.27;38.43
14902;BME280;7542;49.078;9.194;2023-07-16T00:28:05;98448.00;;;33.26;38.00
14902;BME280;7542;49.078;9.194;2023-07-16T00:29:07;98463.19;;;33.27;38.03
14902;BME280;7542;49.078;9.194;2023-07-16T00:30:10;98458.09;;;33.26;38.26
14902;BME280;7542;49.078;9.194;2023-07-16T00:31:12;98458.09;;;33.26;38.28
14902;BME280;7542;49.078;9.194;2023-07-16T00:32:14;98457.28;;;33.25;38.01
14902;BME280;7542;49.078;9.194;2023-07-16T00:33:16;98450.72;;;33.26;38.12
14902;BME280;7542;49.078;9.194;2023-07-16T00:34:18;98454.25;;;33.27;37.93
14902;BME280;7542;49.078;9.194;2023-07-16T00:35:20;98447.53;;;33.24;38.11
14902;BME280;7542;49.078;9.194;2023-07-16T00:36:22;98434.75;;;33.25;37.95
14902;BME280;7542;49.078;9.194;2023-07-16T00:37:25;98444.50;;;33.26;38.58
14902;BME280;7542;49.078;9.194;2023-07-16T00:38:26;98440.97;;;33.25;38.18
14902;BME280;7542;49.078;9.194;2023-07-16T00:39:29;98444.03;;;33.24;37.90
14902;BME280;7542;49.078;9.194;2023-07-16T00:40:31;98427.72;;;33.24;38.08
14902;BME280;7542;49.078;9.194;2023-07-16T00:41:33;98428.84;;;33.23;38.09
14902;BME280;7542;49.078;9.194;2023-07-16T00:42:36;98420.97;;;33.21;38.09
14902;BME280;7542;49.078;9.194;2023-07-16T00:43:38;98427.25;;;33.22;38.21
14902;BME280;7542;49.078;9.194;2023-07-16T00:44:40;98428.34;;;33.21;38.29
14902;BME280;7542;49.078;9.194;2023-07-16T00:45:46;98435.88;;;33.24;37.94
14902;BME280;7542;49.078;9.194;2023-07-16T00:46:49;98428.34;;;33.21;38.18
14902;BME280;7542;49.078;9.194;2023-07-16T00:47:52;98426.75;;;33.20;38.17
14902;BME280;7542;49.078;9.194;2023-07-16T00:48:54;98432.19;;;33.20;38.21
14902;BME280;7542;49.078;9.194;2023-07-16T00:49:57;98427.88;;;33.19;38.36
14902;BME280;7542;49.078;9.194;2023-07-16T00:51:02;98433.31;;;33.19;37.86
14902;BME280;7542;49.078;9.194;2023-07-16T00:52:08;98438.75;;;33.19;38.34
14902;BME280;7542;49.078;9.194;2023-07-16T00:53:14;98437.94;;;33.18;38.31
14902;BME280;7542;49.078;9.194;2023-07-16T00:54:19;98423.09;;;33.15;38.08
14902;BME280;7542;49.078;9.194;2023-07-16T00:55:21;98421.97;;;33.16;38.15
14902;BME280;7542;49.078;9.194;2023-07-16T00:56:23;98432.34;;;33.14;38.34
14902;BME280;7542;49.078;9.194;2023-07-16T00:57:25;98434.59;;;33.12;38.07
14902;BME280;7542;49.078;9.194;2023-07-16T00:58:27;98430.28;;;33.11;37.92
14902;BME280;7542;49.078;9.194;2023-07-16T00:59:30;98427.56;;;33.11;38.04
14902;BME280;7542;49.078;9.194;2023-07-16T01:00:36;98432.34;;;33.14;38.20
14902;BME280;7542;49.078;9.194;2023-07-16T01:01:39;98421.34;;;33.11;38.19
14902;BME280;7542;49.078;9.194;2023-07-16T01:02:42;98412.88;;;33.12;37.98
14902;BME280;7542;49.078;9.194;2023-07-16T01:03:44;98413.50;;;33.09;37.88
14902;BME280;7542;49.078;9.194;2023-07-16T01:04:46;98411.91;;;33.08;37.61
14902;BME280;7542;49.078;9.194;2023-07-16T01:07:18;98405.84;;;33.11;38.08
14902;BME280;7542;49.078;9.194;2023-07-16T01:08:32;98414.47;;;33.13;37.95
14902;BME280;7542;49.078;9.194;2023-07-16T01:09:42;98438.44;;;33.11;37.85
14902;BME280;7542;49.078;9.194;2023-07-16T01:10:44;98446.75;;;33.06;37.62
14902;BME280;7542;49.078;9.194;2023-07-16T01:11:48;98454.41;;;33.04;37.99
14902;BME280;7542;49.078;9.194;2023-07-16T01:12:55;98472.00;;;33.07;37.53
14902;BME280;7542;49.078;9.194;2023-07-16T01:13:59;98472.16;;;33.02;37.78
14902;BME280;7542;49.078;9.194;2023-07-16T01:15:02;98495.03;;;33.01;37.80
14902;BME280;7542;49.078;9.194;2023-07-16T01:16:04;98489.41;;;32.97;37.63
14902;BME280;7542;49.078;9.194;2023-07-16T01:17:07;98488.59;;;32.97;37.44
14902;BME280;7542;49.078;9.194;2023-07-16T01:18:09;98466.41;;;32.95;37.43
14902;BME280;7542;49.078;9.194;2023-07-16T01:19:12;98464.00;;;32.93;37.69
14902;BME280;7542;49.078;9.194;2023-07-16T01:20:15;98465.59;;;32.94;37.38
14902;BME280;7542;49.078;9.194;2023-07-16T01:21:21;98470.25;;;32.94;37.57
14902;BME280;7542;49.078;9.194;2023-07-16T01:23:01;98476.78;;;32.93;37.73
14902;BME280;7542;49.078;9.194;2023-07-16T01:24:11;98469.78;;;33.00;37.13
14902;BME280;7542;49.078;9.194;2023-07-16T01:27:22;98485.75;;;32.93;37.22
14902;BME280;7542;49.078;9.194;2023-07-16T01:28:44;98494.38;;;32.95;37.20
14902;BME280;7542;49.078;9.194;2023-07-16T01:30:08;98490.06;;;32.94;37.10
14902;BME280;7542;49.078;9.194;2023-07-16T01:31:13;98490.69;;;32.82;37.11
14902;BME280;7542;49.078;9.194;2023-07-16T01:32:17;98493.50;;;32.77;37.47
14902;BME280;7542;49.078;9.194;2023-07-16T01:33:21;98499.25;;;32.76;37.12
14902;BME280;7542;49.078;9.194;2023-07-16T01:34:26;98496.88;;;32.74;37.38
14902;BME280;7542;49.078;9.194;2023-07-16T01:35:30;98499.91;;;32.73;37.19
14902;BME280;7542;49.078;9.194;2023-07-16T01:36:34;98504.84;;;32.71;37.16
14902;BME280;7542;49.078;9.194;2023-07-16T01:37:38;98514.13;;;32.70;37.20
14902;BME280;7542;49.078;9.194;2023-07-16T01:38:40;98510.94;;;32.68;36.69
14902;BME280;7542;49.078;9.194;2023-07-16T01:39:42;98513.94;;;32.66;36.85
14902;BME280;7542;49.078;9.194;2023-07-16T01:40:44;98506.91;;;32.65;36.90
14902;BME280;7542;49.078;9.194;2023-07-16T01:41:46;98504.50;;;32.64;36.99
14902;BME280;7542;49.078;9.194;2023-07-16T01:42:48;98501.00;;;32.63;36.83
14902;BME280;7542;49.078;9.194;2023-07-16T01:43:50;98503.25;;;32.61;36.79
14902;BME280;7542;49.078;9.194;2023-07-16T01:44:52;98509.47;;;32.62;36.83
14902;BME280;7542;49.078;9.194;2023-07-16T01:45:54;98516.81;;;32.61;36.86
14902;BME280;7542;49.078;9.194;2023-07-16T01:47:28;98519.38;;;32.75;36.18
14902;BME280;7542;49.078;9.194;2023-07-16T01:48:37;98524.31;;;32.64;36.76
14902;BME280;7542;49.078;9.194;2023-07-16T01:49:40;98517.47;;;32.58;36.60
14902;BME280;7542;49.078;9.194;2023-07-16T01:50:43;98524.81;;;32.57;36.65
14902;BME280;7542;49.078;9.194;2023-07-16T01:51:45;98521.91;;;32.54;36.52
14902;BME280;7542;49.078;9.194;2023-07-16T01:52:47;98514.06;;;32.52;36.86
14902;BME280;7542;49.078;9.194;2023-07-16T01:53:49;98506.25;;;32.51;36.68
14902;BME280;7542;49.078;9.194;2023-07-16T01:54:51;98501.63;;;32.51;36.57
14902;BME280;7542;49.078;9.194;2023-07-16T01:55:53;98491.88;;;32.50;36.58
14902;BME280;7542;49.078;9.194;2023-07-16T01:56:55;98500.03;;;32.50;36.40
14902;BME280;7542;49.078;9.194;2023-07-16T01:57:57;98509.28;;;32.49;36.54
14902;BME280;7542;49.078;9.194;2023-07-16T01:58:59;98508.47;;;32.49;36.42
14902;BME280;7542;49.078;9.194;2023-07-16T02:00:01;98506.09;;;32.47;36.58
14902;BME280;7542;49.078;9.194;2023-07-16T02:01:03;98500.66;;;32.47;36.37
14902;BME280;7542;49.078;9.194;2023-07-16T02:02:05;98503.69;;;32.46;36.58
14902;BME280;7542;49.078;9.194;2023-07-16T02:03:07;98505.56;;;32.45;36.56
14902;BME280;7542;49.078;9.194;2023-07-16T02:04:09;98504.78;;;32.45;36.50
14902;BME280;7542;49.078;9.194;2023-07-16T02:05:11;98505.09;;;32.43;36.49
14902;BME280;7542;49.078;9.194;2023-07-16T02:06:13;98504.31;;;32.43;36.48
14902;BME280;7542;49.078;9.194;2023-07-16T02:07:16;98503.50;;;32.42;36.50
14902;BME280;7542;49.078;9.194;2023-07-16T02:08:18;98501.91;;;32.41;36.23
14902;BME280;7542;49.078;9.194;2023-07-16T02:09:21;98505.75;;;32.40;36.42
14902;BME280;7542;49.078;9.194;2023-07-16T02:10:23;98507.19;;;32.38;36.27
14902;BME280;7542;49.078;9.194;2023-07-16T02:11:25;98516.13;;;32.38;36.42
14902;BME280;7542;49.078;9.194;2023-07-16T02:12:27;98513.72;;;32.37;36.30
14902;BME280;7542;49.078;9.194;2023-07-16T02:13:29;98520.25;;;32.36;36.08
14902;BME280;7542;49.078;9.194;2023-07-16T02:14:31;98529.81;;;32.33;36.62
14902;BME280;7542;49.078;9.194;2023-07-16T02:15:33;98529.81;;;32.33;36.14
14902;BME280;7542;49.078;9.194;2023-07-16T02:16:35;98542.59;;;32.33;36.26
14902;BME280;7542;49.078;9.194;2023-07-16T02:17:37;98539.69;;;32.29;36.32
14902;BME280;7542;49.078;9.194;2023-07-16T02:18:39;98534.28;;;32.29;36.30
14902;BME280;7542;49.078;9.194;2023-07-16T02:19:41;98539.19;;;32.27;36.24
14902;BME280;7542;49.078;9.194;2023-07-16T02:20:43;98534.56;;;32.27;36.29
14902;BME280;7542;49.078;9.194;2023-07-16T02:21:45;98533.28;;;32.25;36.14
14902;BME280;7542;49.078;9.194;2023-07-16T02:22:47;98525.44;;;32.23;36.23
14902;BME280;7542;49.078;9.194;2023-07-16T02:23:49;98519.53;;;32.21;36.18
14902;BME280;7542;49.078;9.194;2023-07-16T02:24:51;98520.31;;;32.22;36.08
14902;BME280;7542;49.078;9.194;2023-07-16T02:25:53;98524.78;;;32.18;36.31
14902;BME280;7542;49.078;9.194;2023-07-16T02:26:55;98524.47;;;32.19;36.36
14902;BME280;7542;49.078;9.194;2023-07-16T02:27:57;98521.28;;;32.17;36.31
14902;BME280;7542;49.078;9.194;2023-07-16T02:28:59;98520.47;;;32.17;36.26
14902;BME280;7542;49.078;9.194;2023-07-16T02:30:01;98513.44;;;32.16;36.21
14902;BME280;7542;49.078;9.194;2023-07-16T02:31:03;98508.94;;;32.11;36.00
14902;BME280;7542;49.078;9.194;2023-07-16T02:32:06;98519.19;;;32.14;36.29
14902;BME280;7542;49.078;9.194;2023-07-16T02:33:08;98514.06;;;32.13;36.44
14902;BME280;7542;49.078;9.194;2023-07-16T02:34:10;98509.75;;;32.12;36.57
14902;BME280;7542;49.078;9.194;2023-07-16T02:35:14;98508.94;;;32.11;36.38
14902;BME280;7542;49.078;9.194;2023-07-16T02:36:16;98510.06;;;32.10;36.50
14902;BME280;7542;49.078;9.194;2023-07-16T02:37:19;98517.41;;;32.10;36.55
14902;BME280;7542;49.078;9.194;2023-07-16T02:38:21;98523.13;;;32.08;36.67
14902;BME280;7542;49.078;9.194;2023-07-16T02:39:24;98526.50;;;32.05;36.54
14902;BME280;7542;49.078;9.194;2023-07-16T02:40:26;98522.19;;;32.04;36.71
14902;BME280;7542;49.078;9.194;2023-07-16T02:41:28;98527.41;;;32.00;36.67
14902;BME280;7542;49.078;9.194;2023-07-16T02:42:30;98526.13;;;31.98;36.70
14902;BME280;7542;49.078;9.194;2023-07-16T02:43:32;98534.25;;;31.98;36.49
14902;BME280;7542;49.078;9.194;2023-07-16T02:44:34;98525.94;;;31.94;36.45
14902;BME280;7542;49.078;9.194;2023-07-16T02:45:41;98537.91;;;31.93;36.59
14902;BME280;7542;49.078;9.194;2023-07-16T02:46:43;98541.53;;;31.89;36.97
14902;BME280;7542;49.078;9.194;2023-07-16T02:47:46;98547.28;;;31.87;36.51
14902;BME280;7542;49.078;9.194;2023-07-16T02:48:47;98553.34;;;31.84;36.58
14902;BME280;7542;49.078;9.194;2023-07-16T02:49:53;98543.13;;;31.81;36.94
14902;BME280;7542;49.078;9.194;2023-07-16T02:50:54;98548.34;;;31.78;36.52
14902;BME280;7542;49.078;9.194;2023-07-16T02:51:56;98547.06;;;31.75;36.21
14902;BME280;7542;49.078;9.194;2023-07-16T02:52:58;98551.97;;;31.73;36.34
14902;BME280;7542;49.078;9.194;2023-07-16T02:54:00;98551.75;;;31.69;36.57
14902;BME280;7542;49.078;9.194;2023-07-16T02:55:02;98554.28;;;31.66;36.56
14902;BME280;7542;49.078;9.194;2023-07-16T02:56:04;98553.00;;;31.63;36.37
14902;BME280;7542;49.078;9.194;2023-07-16T02:57:07;98559.38;;;31.59;36.54
14902;BME280;7542;49.078;9.194;2023-07-16T02:58:08;98546.41;;;31.56;36.37
14902;BME280;7542;49.078;9.194;2023-07-16T02:59:10;98545.91;;;31.54;36.44
14902;BME280;7542;49.078;9.194;2023-07-16T03:00:13;98553.56;;;31.52;36.63
14902;BME280;7542;49.078;9.194;2023-07-16T03:01:15;98555.28;;;31.48;36.61
14902;BME280;7542;49.078;9.194;2023-07-16T03:02:17;98557.50;;;31.45;36.47
14902;BME280;7542;49.078;9.194;2023-07-16T03:03:19;98558.09;;;31.42;36.22
14902;BME280;7542;49.078;9.194;2023-07-16T03:04:21;98556.03;;;31.39;36.33
14902;BME280;7542;49.078;9.194;2023-07-16T03:05:24;98551.19;;;31.36;36.39
14902;BME280;7542;49.078;9.194;2023-07-16T03:06:26;98548.00;;;31.34;36.48
14902;BME280;7542;49.078;9.194;2023-07-16T03:07:28;98548.63;;;31.31;36.58
14902;BME280;7542;49.078;9.194;2023-07-16T03:08:31;98559.75;;;31.30;36.11
14902;BME280;7542;49.078;9.194;2023-07-16T03:09:33;98555.78;;;31.27;36.25
14902;BME280;7542;49.078;9.194;2023-07-16T03:10:35;98554.44;;;31.25;36.13
14902;BME280;7542;49.078;9.194;2023-07-16T03:11:37;98545.53;;;31.24;36.19
14902;BME280;7542;49.078;9.194;2023-07-16T03:12:39;98544.22;;;31.22;36.44
14902;BME280;7542;49.078;9.194;2023-07-16T03:13:41;98538.31;;;31.20;36.53
14902;BME280;7542;49.078;9.194;2023-07-16T03:14:43;98535.91;;;31.18;36.32
14902;BME280;7542;49.078;9.194;2023-07-16T03:15:45;98537.31;;;31.15;36.48
14902;BME280;7542;49.078;9.194;2023-07-16T03:16:47;98537.31;;;31.15;36.66
14902;BME280;7542;49.078;9.194;2023-07-16T03:17:49;98536.00;;;31.13;36.54
14902;BME280;7542;49.078;9.194;2023-07-16T03:18:52;98538.69;;;31.13;36.41
14902;BME280;7542;49.078;9.194;2023-07-16T03:19:55;98537.91;;;31.12;36.78
14902;BME280;7542;49.078;9.194;2023-07-16T03:20:57;98535.50;;;31.11;36.27
14902;BME280;7542;49.078;9.194;2023-07-16T03:21:59;98540.13;;;31.10;36.72
14902;BME280;7542;49.078;9.194;2023-07-16T03:23:01;98531.50;;;31.08;36.45
14902;BME280;7542;49.078;9.194;2023-07-16T03:24:04;98542.34;;;31.08;36.56
14902;BME280;7542;49.078;9.194;2023-07-16T03:25:06;98549.97;;;31.06;36.51
14902;BME280;7542;49.078;9.194;2023-07-16T03:26:08;98549.66;;;31.08;36.99
14902;BME280;7542;49.078;9.194;2023-07-16T03:27:10;98553.00;;;31.05;36.67
14902;BME280;7542;49.078;9.194;2023-07-16T03:28:19;98551.09;;;31.05;36.99
14902;BME280;7542;49.078;9.194;2023-07-16T03:29:21;98562.19;;;31.04;36.61
14902;BME280;7542;49.078;9.194;2023-07-16T03:30:23;98567.59;;;31.04;37.10
14902;BME280;7542;49.078;9.194;2023-07-16T03:31:25;98572.22;;;31.03;37.24
14902;BME280;7542;49.078;9.194;2023-07-16T03:32:27;98569.03;;;31.01;37.31
14902;BME280;7542;49.078;9.194;2023-07-16T03:33:42;98573.34;;;31.02;37.07
14902;BME280;7542;49.078;9.194;2023-07-16T03:34:45;98582.88;;;31.00;36.96
14902;BME280;7542;49.078;9.194;2023-07-16T03:35:49;98587.50;;;30.99;36.87
14902;BME280;7542;49.078;9.194;2023-07-16T03:36:51;98588.09;;;30.96;37.30
14902;BME280;7542;49.078;9.194;2023-07-16T03:37:53;98583.50;;;30.97;37.09
14902;BME280;7542;49.078;9.194;2023-07-16T03:38:55;98586.28;;;30.92;37.21
14902;BME280;7542;49.078;9.194;2023-07-16T03:40:12;98582.56;;;31.01;37.21
14902;BME280;7542;49.078;9.194;2023-07-16T03:41:14;98582.47;;;30.93;37.01
14902;BME280;7542;49.078;9.194;2023-07-16T03:42:16;98581.97;;;30.91;37.21
14902;BME280;7542;49.078;9.194;2023-07-16T03:43:18;98588.00;;;30.87;37.32
14902;BME280;7542;49.078;9.194;2023-07-16T03:44:20;98583.22;;;30.84;37.45
14902;BME280;7542;49.078;9.194;2023-07-16T03:45:24;98594.53;;;30.86;37.12
14902;BME280;7542;49.078;9.194;2023-07-16T03:46:26;98594.84;;;30.85;37.52
14902;BME280;7542;49.078;9.194;2023-07-16T03:47:28;98598.94;;;30.82;37.15
14902;BME280;7542;49.078;9.194;2023-07-16T03:48:30;98598.94;;;30.82;37.07
14902;BME280;7542;49.078;9.194;2023-07-16T03:49:32;98607.34;;;30.81;37.24
14902;BME280;7542;49.078;9.194;2023-07-16T03:50:35;98600.34;;;30.80;37.36
14902;BME280;7542;49.078;9.194;2023-07-16T03:51:37;98599.53;;;30.79;37.59
14902;BME280;7542;49.078;9.194;2023-07-16T03:52:39;98600.66;;;30.78;37.52
14902;BME280;7542;49.078;9.194;2023-07-16T03:53:41;98598.56;;;30.75;37.69
14902;BME280;7542;49.078;9.194;2023-07-16T03:54:43;98593.94;;;30.76;37.28
14902;BME280;7542;49.078;9.194;2023-07-16T03:55:45;98603.16;;;30.75;37.62
14902;BME280;7542;49.078;9.194;2023-07-16T03:56:47;98596.44;;;30.72;37.81
14902;BME280;7542;49.078;9.194;2023-07-16T03:57:48;98602.16;;;30.71;37.79
14902;BME280;7542;49.078;9.194;2023-07-16T03:58:51;98609.47;;;30.70;37.34
14902;BME280;7542;49.078;9.194;2023-07-16T03:59:53;98610.56;;;30.69;37.29
14902;BME280;7542;49.078;9.194;2023-07-16T04:00:55;98622.81;;;30.67;37.40
14902;BME280;7542;49.078;9.194;2023-07-16T04:01:57;98622.31;;;30.65;37.27
14902;BME280;7542;49.078;9.194;2023-07-16T04:02:59;98628.81;;;30.64;37.36
14902;BME280;7542;49.078;9.194;2023-07-16T04:04:01;98630.69;;;30.63;37.14
14902;BME280;7542;49.078;9.194;2023-07-16T04:05:04;98625.88;;;30.60;37.70
14902;BME280;7542;49.078;9.194;2023-07-16T04:06:08;98624.56;;;30.57;37.05
14902;BME280;7542;49.078;9.194;2023-07-16T04:07:13;98640.81;;;30.57;37.06
14902;BME280;7542;49.078;9.194;2023-07-16T04:08:15;98637.91;;;30.54;37.60
14902;BME280;7542;49.078;9.194;2023-07-16T04:09:17;98639.00;;;30.53;37.66
14902;BME280;7542;49.078;9.194;2023-07-16T04:10:19;98632.31;;;30.50;37.49
14902;BME280;7542;49.078;9.194;2023-07-16T04:11:20;98639.88;;;30.48;37.06
14902;BME280;7542;49.078;9.194;2023-07-16T04:12:22;98642.09;;;30.46;37.04
14902;BME280;7542;49.078;9.194;2023-07-16T04:13:24;98651.31;;;30.45;37.38
14902;BME280;7542;49.078;9.194;2023-07-16T04:14:26;98653.22;;;30.45;37.53
14902;BME280;7542;49.078;9.194;2023-07-16T04:15:29;98661.66;;;30.43;37.28
14902;BME280;7542;49.078;9.194;2023-07-16T04:16:30;98667.84;;;30.44;37.22
14902;BME280;7542;49.078;9.194;2023-07-16T04:17:32;98664.34;;;30.43;37.05
14902;BME280;7542;49.078;9.194;2023-07-16T04:18:35;98663.53;;;30.43;37.12
14902;BME280;7542;49.078;9.194;2023-07-16T04:19:38;98660.84;;;30.43;37.19
14902;BME280;7542;49.078;9.194;2023-07-16T04:20:40;98664.66;;;30.42;37.41
14902;BME280;7542;49.078;9.194;2023-07-16T04:21:42;98658.44;;;30.41;37.52
14902;BME280;7542;49.078;9.194;2023-07-16T04:22:44;98664.66;;;30.42;37.07
14902;BME280;7542;49.078;9.194;2023-07-16T04:23:46;98660.34;;;30.41;37.34
14902;BME280;7542;49.078;9.194;2023-07-16T04:24:48;98663.03;;;30.41;37.59
14902;BME280;7542;49.078;9.194;2023-07-16T04:25:55;98664.34;;;30.43;36.91
14902;BME280;7542;49.078;9.194;2023-07-16T04:26:59;98659.25;;;30.42;37.03
14902;BME280;7542;49.078;9.194;2023-07-16T04:28:01;98655.19;;;30.39;37.33
14902;BME280;7542;49.078;9.194;2023-07-16T04:29:05;98657.91;;;30.39;36.86
14902;BME280;7542;49.078;9.194;2023-07-16T04:30:08;98656.03;;;30.40;37.18
14902;BME280;7542;49.078;9.194;2023-07-16T04:31:10;98655.19;;;30.39;37.50
14902;BME280;7542;49.078;9.194;2023-07-16T04:32:12;98657.91;;;30.39;36.96
14902;BME280;7542;49.078;9.194;2023-07-16T04:33:14;98655.19;;;30.39;36.91
14902;BME280;7542;49.078;9.194;2023-07-16T04:34:16;98649.00;;;30.39;37.42
14902;BME280;7542;49.078;9.194;2023-07-16T04:35:18;98653.31;;;30.40;37.03
14902;BME280;7542;49.078;9.194;2023-07-16T04:36:20;98654.41;;;30.39;37.08
14902;BME280;7542;49.078;9.194;2023-07-16T04:37:22;98645.22;;;30.40;36.87
14902;BME280;7542;49.078;9.194;2023-07-16T04:38:24;98650.63;;;30.40;36.91
14902;BME280;7542;49.078;9.194;2023-07-16T04:39:28;98649.78;;;30.39;36.88
14902;BME280;7542;49.078;9.194;2023-07-16T04:40:30;98656.84;;;30.40;36.72
14902;BME280;7542;49.078;9.194;2023-07-16T04:41:32;98659.25;;;30.42;37.02
14902;BME280;7542;49.078;9.194;2023-07-16T04:42:34;98665.75;;;30.41;37.18
14902;BME280;7542;49.078;9.194;2023-07-16T04:43:36;98664.94;;;30.40;37.29
14902;BME280;7542;49.078;9.194;2023-07-16T04:44:38;98662.25;;;30.40;36.82
14902;BME280;7542;49.078;9.194;2023-07-16T04:45:40;98657.91;;;30.39;36.63
14902;BME280;7542;49.078;9.194;2023-07-16T04:46:42;98653.31;;;30.40;37.32
14902;BME280;7542;49.078;9.194;2023-07-16T04:47:44;98657.63;;;30.41;36.88
14902;BME280;7542;49.078;9.194;2023-07-16T04:48:46;98652.22;;;30.41;37.18
14902;BME280;7542;49.078;9.194;2023-07-16T04:49:48;98650.63;;;30.40;37.17
14902;BME280;7542;49.078;9.194;2023-07-16T04:50:51;98646.00;;;30.40;36.54
14902;BME280;7542;49.078;9.194;2023-07-16T04:51:54;98646.00;;;30.40;37.20
14902;BME280;7542;49.078;9.194;2023-07-16T04:52:56;98657.63;;;30.41;37.06
14902;BME280;7542;49.078;9.194;2023-07-16T04:53:58;98661.16;;;30.41;37.07
14902;BME280;7542;49.078;9.194;2023-07-16T04:55:00;98668.47;;;30.41;36.75
14902;BME280;7542;49.078;9.194;2023-07-16T04:56:02;98666.84;;;30.40;36.80
14902;BME280;7542;49.078;9.194;2023-07-16T04:57:06;98679.78;;;30.43;37.06
14902;BME280;7542;49.078;9.194;2023-07-16T04:58:12;98682.19;;;30.44;36.84
14902;BME280;7542;49.078;9.194;2023-07-16T04:59:14;98686.00;;;30.43;36.91
14902;BME280;7542;49.078;9.194;2023-07-16T05:00:16;98686.28;;;30.42;36.48
14902;BME280;7542;49.078;9.194;2023-07-16T05:01:18;98690.91;;;30.41;36.80
14902;BME280;7542;49.078;9.194;2023-07-16T05:02:22;98693.63;;;30.41;36.68
14902;BME280;7542;49.078;9.194;2023-07-16T05:03:24;98692.81;;;30.41;36.53
14902;BME280;7542;49.078;9.194;2023-07-16T05:04:30;98693.63;;;30.41;37.07
14902;BME280;7542;49.078;9.194;2023-07-16T05:05:33;98691.22;;;30.40;36.50
14902;BME280;7542;49.078;9.194;2023-07-16T05:06:35;98697.41;;;30.40;36.43
14902;BME280;7542;49.078;9.194;2023-07-16T05:07:37;98691.22;;;30.40;36.45
14902;BME280;7542;49.078;9.194;2023-07-16T05:08:39;98692.28;;;30.39;36.44
14902;BME280;7542;49.078;9.194;2023-07-16T05:09:42;98697.69;;;30.39;36.81
14902;BME280;7542;49.078;9.194;2023-07-16T05:10:44;98697.69;;;30.39;36.85
14902;BME280;7542;49.078;9.194;2023-07-16T05:11:47;98693.38;;;30.38;36.88
14902;BME280;7542;49.078;9.194;2023-07-16T05:12:49;98695.78;;;30.39;36.77
14902;BME280;7542;49.078;9.194;2023-07-16T05:13:51;98705.00;;;30.38;36.71
14902;BME280;7542;49.078;9.194;2023-07-16T05:14:52;98705.00;;;30.38;36.46
14902;BME280;7542;49.078;9.194;2023-07-16T05:15:55;98701.81;;;30.36;36.51
14902;BME280;7542;49.078;9.194;2023-07-16T05:16:57;98701.50;;;30.38;36.79
14902;BME280;7542;49.078;9.194;2023-07-16T05:17:59;98695.59;;;30.36;36.47
14902;BME280;7542;49.078;9.194;2023-07-16T05:19:01;98696.09;;;30.38;36.66
14902;BME280;7542;49.078;9.194;2023-07-16T05:20:03;98699.91;;;30.37;36.39
14902;BME280;7542;49.078;9.194;2023-07-16T05:21:06;98702.59;;;30.37;36.61
14902;BME280;7542;49.078;9.194;2023-07-16T05:22:07;98702.59;;;30.37;36.74
14902;BME280;7542;49.078;9.194;2023-07-16T05:23:10;98701.28;;;30.34;36.77
14902;BME280;7542;49.078;9.194;2023-07-16T05:24:12;98702.91;;;30.35;36.62
14902;BME280;7542;49.078;9.194;2023-07-16T05:25:14;98707.81;;;30.33;36.86
14902;BME280;7542;49.078;9.194;2023-07-16T05:26:16;98709.72;;;30.33;36.35
14902;BME280;7542;49.078;9.194;2023-07-16T05:27:18;98705.72;;;30.30;37.07
14902;BME280;7542;49.078;9.194;2023-07-16T05:28:20;98697.88;;;30.28;36.51
14902;BME280;7542;49.078;9.194;2023-07-16T05:29:22;98694.66;;;30.26;36.48
14902;BME280;7542;49.078;9.194;2023-07-16T05:30:24;98706.56;;;30.25;36.96
14902;BME280;7542;49.078;9.194;2023-07-16T05:31:26;98704.97;;;30.24;37.12
14902;BME280;7542;49.078;9.194;2023-07-16T05:32:29;98697.97;;;30.23;37.07
14902;BME280;7542;49.078;9.194;2023-07-16T05:33:31;98702.88;;;30.21;36.92
14902;BME280;7542;49.078;9.194;2023-07-16T05:34:33;98706.66;;;30.20;36.97
14902;BME280;7542;49.078;9.194;2023-07-16T05:35:35;98717.50;;;30.20;36.65
14902;BME280;7542;49.078;9.194;2023-07-16T05:36:37;98714.28;;;30.18;37.25
14902;BME280;7542;49.078;9.194;2023-07-16T05:37:39;98711.56;;;30.18;36.93
14902;BME280;7542;49.078;9.194;2023-07-16T05:38:42;98706.72;;;30.15;37.21
14902;BME280;7542;49.078;9.194;2023-07-16T05:39:44;98707.84;;;30.14;37.13
14902;BME280;7542;49.078;9.194;2023-07-16T05:40:46;98708.94;;;30.13;36.94